createdAt,value
2022-12-04T00:01:55.854Z,18.13
2022-12-04T00:04:24.025Z,17.80
2022-12-04T00:06:57.153Z,17.77
2022-12-04T00:09:26.934Z,17.88
2022-12-04T00:11:55.081Z,17.63
2022-12-04T00:14:23.359Z,17.23
2022-12-04T00:16:51.641Z,17.00
2022-12-04T00:19:21.389Z,18.58
2022-12-04T00:21:51.178Z,17.35
2022-12-04T00:24:19.600Z,16.50
2022-12-04T00:26:47.745Z,17.80
2022-12-04T00:29:16.074Z,17.13
2022-12-04T00:31:44.371Z,19.30
2022-12-04T00:34:12.886Z,18.63
2022-12-04T00:36:42.574Z,19.50
2022-12-04T00:39:11.128Z,19.88
2022-12-04T00:41:39.785Z,19.83
2022-12-04T00:44:07.926Z,16.98
2022-12-04T00:46:36.329Z,17.95
2022-12-04T00:49:04.703Z,19.05
2022-12-04T00:51:33.028Z,17.77
2022-12-04T00:54:02.598Z,19.60
2022-12-04T00:56:30.858Z,18.23
2022-12-04T00:59:01.414Z,16.98
2022-12-04T01:01:31.705Z,19.00
2022-12-04T01:04:00.048Z,16.40
2022-12-04T01:06:30.150Z,18.23
2022-12-04T01:08:59.488Z,18.15
2022-12-04T01:11:30.962Z,18.15
2022-12-04T01:13:59.426Z,18.58
2022-12-04T01:16:29.959Z,19.00
2022-12-04T01:18:58.207Z,16.70
2022-12-04T01:21:26.393Z,17.77
2022-12-04T01:23:54.601Z,17.30
2022-12-04T01:26:22.736Z,17.98
2022-12-04T01:28:52.385Z,17.05
2022-12-04T01:31:22.632Z,16.70
2022-12-04T01:33:51.752Z,17.38
2022-12-04T01:36:23.621Z,18.70
2022-12-04T01:38:52.044Z,17.60
2022-12-04T01:41:23.294Z,16.60
2022-12-04T01:44:18.634Z,16.15
2022-12-04T01:46:47.922Z,16.23
2022-12-04T01:49:20.054Z,18.08
2022-12-04T01:51:52.473Z,16.60
2022-12-04T01:54:28.849Z,17.25
2022-12-04T01:57:02.218Z,15.90
2022-12-04T01:59:36.493Z,15.40
2022-12-04T02:02:09.701Z,15.65
2022-12-04T02:04:39.117Z,14.38
2022-12-04T02:07:07.409Z,16.48
2022-12-04T02:09:39.337Z,16.80
2022-12-04T02:12:14.613Z,17.00
2022-12-04T02:14:53.532Z,16.25
2022-12-04T02:17:28.477Z,17.48
2022-12-04T02:20:09.784Z,14.25
2022-12-04T02:23:09.615Z,14.68
2022-12-04T02:25:45.503Z,17.15
2022-12-04T02:28:23.984Z,17.13
2022-12-04T02:30:54.080Z,15.95
2022-12-04T02:33:26.677Z,15.93
2022-12-04T02:36:03.658Z,17.63
2022-12-04T02:38:37.063Z,16.75
2022-12-04T02:41:10.829Z,17.48
2022-12-04T02:43:45.416Z,16.08
2022-12-04T02:46:19.816Z,16.10
2022-12-04T02:48:51.448Z,17.77
2022-12-04T02:51:22.358Z,17.38
2022-12-04T02:53:55.935Z,15.60
2022-12-04T02:56:27.459Z,17.15
2022-12-04T02:59:00.093Z,17.35
2022-12-04T03:01:33.551Z,17.13
2022-12-04T03:04:06.568Z,16.63
2022-12-04T03:06:37.832Z,16.70
2022-12-04T03:09:11.670Z,16.40
2022-12-04T03:11:41.671Z,17.30
2022-12-04T03:14:15.926Z,17.25
2022-12-04T03:16:44.612Z,17.65
2022-12-04T03:19:17.263Z,17.23
2022-12-04T03:21:50.048Z,16.75
2022-12-04T03:24:24.637Z,18.95
2022-12-04T03:26:57.957Z,16.80
2022-12-04T03:29:34.461Z,18.05
2022-12-04T03:32:09.322Z,16.60
2022-12-04T03:34:43.872Z,18.13
2022-12-04T03:37:16.864Z,15.10
2022-12-04T03:39:53.538Z,17.15
2022-12-04T03:42:25.353Z,18.80
2022-12-04T03:45:02.185Z,16.98
2022-12-04T03:47:37.186Z,16.10
2022-12-04T03:50:13.625Z,15.65
2022-12-04T03:52:49.711Z,17.10
2022-12-04T03:55:25.622Z,14.95
2022-12-04T03:57:57.756Z,16.83
2022-12-04T04:00:27.451Z,15.68
2022-12-04T04:03:00.162Z,16.67
2022-12-04T04:05:31.331Z,16.17
2022-12-04T04:08:17.890Z,15.40
2022-12-04T04:10:46.778Z,15.52
2022-12-04T04:13:35.978Z,15.50
2022-12-04T04:16:25.656Z,12.50
2022-12-04T04:19:12.986Z,13.95
2022-12-04T04:22:01.495Z,12.68
2022-12-04T04:24:34.879Z,13.10
2022-12-04T04:27:04.160Z,12.85
2022-12-04T04:29:32.713Z,12.95
2022-12-04T04:32:09.156Z,12.35
2022-12-04T04:34:43.252Z,11.98
2022-12-04T04:37:18.148Z,11.20
2022-12-04T04:39:54.319Z,12.63
2022-12-04T04:42:27.862Z,11.95
2022-12-04T04:45:02.557Z,11.90
2022-12-04T04:47:35.622Z,12.35
2022-12-04T04:50:05.846Z,12.32
2022-12-04T04:52:34.827Z,12.48
2022-12-04T04:55:04.644Z,11.85
2022-12-04T04:57:35.941Z,12.05
2022-12-04T05:00:05.669Z,11.93
2022-12-04T05:02:35.755Z,11.85
2022-12-04T05:05:04.127Z,10.77
2022-12-04T05:07:32.212Z,11.27
2022-12-04T05:10:00.545Z,12.27
2022-12-04T05:12:28.906Z,11.30
2022-12-04T05:14:57.040Z,11.93
2022-12-04T05:17:25.280Z,11.88
2022-12-04T05:19:54.524Z,11.80
2022-12-04T05:22:25.316Z,9.50
2022-12-04T05:24:54.217Z,11.38
2022-12-04T05:27:23.055Z,12.40
2022-12-04T05:29:54.387Z,11.13
2022-12-04T05:32:23.808Z,10.38
2022-12-04T05:34:52.349Z,11.63
2022-12-04T05:37:22.688Z,9.93
2022-12-04T05:39:50.783Z,11.52
2022-12-04T05:42:18.850Z,11.85
2022-12-04T05:44:46.982Z,11.93
2022-12-04T05:47:15.127Z,10.40
2022-12-04T05:49:43.291Z,11.40
2022-12-04T05:52:11.591Z,10.90
2022-12-04T05:54:41.387Z,10.77
2022-12-04T05:57:09.435Z,12.40
2022-12-04T05:59:37.746Z,11.80
2022-12-04T06:02:05.908Z,11.25
2022-12-04T06:04:34.136Z,10.98
2022-12-04T06:07:02.296Z,10.98
2022-12-04T06:09:30.577Z,11.93
2022-12-04T06:12:00.594Z,10.43
2022-12-04T06:14:28.710Z,11.85
2022-12-04T06:16:56.973Z,9.95
2022-12-04T06:19:25.480Z,12.55
2022-12-04T06:21:54.527Z,10.68
2022-12-04T06:24:24.288Z,10.07
2022-12-04T06:27:27.348Z,12.60
2022-12-04T06:29:46.605Z,11.10
2022-12-04T06:32:19.724Z,10.30
2022-12-04T06:34:52.698Z,10.85
2022-12-04T06:37:21.496Z,10.45
2022-12-04T06:39:49.717Z,11.13
2022-12-04T06:42:18.415Z,10.75
2022-12-04T06:44:48.092Z,11.32
2022-12-04T06:47:16.240Z,12.10
2022-12-04T06:49:46.052Z,11.68
2022-12-04T06:52:14.234Z,11.25
2022-12-04T06:54:42.575Z,11.00
2022-12-04T06:57:10.845Z,10.50
2022-12-04T06:59:39.219Z,11.40
2022-12-04T07:02:10.536Z,10.95
2022-12-04T07:04:38.920Z,11.60
2022-12-04T07:07:09.094Z,11.60
2022-12-04T07:09:37.637Z,10.32
2022-12-04T07:12:06.450Z,10.25
2022-12-04T07:14:34.647Z,10.68
2022-12-04T07:17:02.858Z,11.60
2022-12-04T07:19:32.451Z,10.60
2022-12-04T07:22:00.559Z,12.65
2022-12-04T07:24:28.685Z,12.20
2022-12-04T07:26:56.839Z,12.20
2022-12-04T07:29:24.900Z,12.20
2022-12-04T07:31:53.187Z,12.40
2022-12-04T07:34:21.357Z,12.90
2022-12-04T07:36:50.793Z,13.35
2022-12-04T07:39:18.811Z,11.88
2022-12-04T07:41:46.951Z,11.00
2022-12-04T07:44:15.056Z,12.02
2022-12-04T07:46:43.219Z,11.40
2022-12-04T07:49:13.379Z,13.30
2022-12-04T07:51:41.499Z,10.43
2022-12-04T07:54:11.074Z,10.63
2022-12-04T07:56:39.216Z,11.68
2022-12-04T07:59:07.284Z,12.60
2022-12-04T08:01:35.558Z,12.38
2022-12-04T08:04:04.514Z,12.75
2022-12-04T08:06:35.039Z,12.40
2022-12-04T08:09:09.170Z,12.23
2022-12-04T08:11:39.809Z,12.93
2022-12-04T08:14:09.775Z,12.13
2022-12-04T08:16:38.376Z,11.73
2022-12-04T08:19:06.820Z,10.80
2022-12-04T08:21:35.063Z,13.35
2022-12-04T08:24:04.151Z,11.77
2022-12-04T08:26:33.837Z,12.95
2022-12-04T08:29:04.001Z,12.02
2022-12-04T08:31:34.083Z,11.52
2022-12-04T08:34:04.950Z,12.70
2022-12-04T08:36:33.986Z,12.30
2022-12-04T08:39:02.196Z,12.50
2022-12-04T08:41:30.575Z,11.25
2022-12-04T08:43:59.631Z,12.10
2022-12-04T08:46:29.930Z,12.23
2022-12-04T08:48:58.565Z,13.65
2022-12-04T08:51:29.190Z,13.00
2022-12-04T08:53:58.017Z,12.25
2022-12-04T08:56:27.595Z,11.85
2022-12-04T08:58:57.396Z,13.05
2022-12-04T09:01:26.741Z,11.25
2022-12-04T09:03:57.035Z,12.05
2022-12-04T09:06:25.782Z,11.45
2022-12-04T09:08:55.514Z,12.07
2022-12-04T09:11:25.969Z,13.60
2022-12-04T09:13:54.408Z,12.43
2022-12-04T09:16:24.909Z,11.95
2022-12-04T09:18:53.419Z,13.18
2022-12-04T09:21:24.203Z,10.63
2022-12-04T09:23:52.690Z,14.05
2022-12-04T09:26:24.859Z,12.40
2022-12-04T09:28:54.222Z,14.50
2022-12-04T09:31:23.311Z,14.13
2022-12-04T09:33:52.246Z,11.45
2022-12-04T09:36:20.886Z,10.20
2022-12-04T09:38:52.149Z,14.90
2022-12-04T09:41:46.614Z,11.52
2022-12-04T09:44:19.660Z,12.05
2022-12-04T09:46:52.884Z,11.02
2022-12-04T09:49:26.661Z,11.48
2022-12-04T09:51:58.954Z,11.90
2022-12-04T09:54:35.200Z,12.70
2022-12-04T09:57:13.773Z,12.82
2022-12-04T09:59:42.023Z,11.15
2022-12-04T10:02:35.212Z,11.23
2022-12-04T10:05:03.994Z,11.50
2022-12-04T10:07:36.660Z,11.88
2022-12-04T10:10:14.253Z,11.82
2022-12-04T10:12:51.647Z,10.85
2022-12-04T10:15:30.742Z,11.48
2022-12-04T10:18:23.365Z,11.50
2022-12-04T10:21:14.699Z,11.07
2022-12-04T10:23:55.978Z,13.18
2022-12-04T10:26:31.996Z,12.13
2022-12-04T10:29:03.705Z,14.35
2022-12-04T10:31:34.850Z,11.55
2022-12-04T10:34:07.077Z,11.75
2022-12-04T10:36:36.408Z,12.15
2022-12-04T10:39:13.513Z,17.42
2022-12-04T10:41:51.951Z,12.70
2022-12-04T10:44:21.410Z,13.17
2022-12-04T10:46:52.051Z,11.05
2022-12-04T10:49:23.297Z,13.40
2022-12-04T10:51:51.442Z,12.55
2022-12-04T10:54:22.679Z,12.13
2022-12-04T10:56:57.176Z,10.38
2022-12-04T10:59:26.057Z,11.90
2022-12-04T11:02:06.224Z,11.20
2022-12-04T11:04:36.519Z,11.70
2022-12-04T11:07:06.605Z,12.48
2022-12-04T11:09:35.211Z,15.25
2022-12-04T11:12:11.120Z,14.60
2022-12-04T11:14:44.055Z,13.80
2022-12-04T11:17:19.491Z,12.48
2022-12-04T11:19:47.847Z,12.70
2022-12-04T11:22:19.218Z,13.10
2022-12-04T11:24:54.403Z,13.02
2022-12-04T11:27:27.901Z,13.35
2022-12-04T11:29:57.434Z,11.90
2022-12-04T11:32:27.893Z,12.50
2022-12-04T11:35:00.363Z,14.73
2022-12-04T11:37:31.868Z,13.70
2022-12-04T11:40:00.393Z,14.20
2022-12-04T11:42:31.617Z,14.25
2022-12-04T11:45:01.972Z,12.80
2022-12-04T11:47:32.396Z,12.35
2022-12-04T11:50:03.968Z,12.07
2022-12-04T11:52:49.108Z,13.57
2022-12-04T11:55:28.345Z,13.07
2022-12-04T11:58:23.582Z,13.65
2022-12-04T12:01:00.636Z,14.63
2022-12-04T12:03:35.777Z,13.13
2022-12-04T12:06:29.805Z,14.88
2022-12-04T12:09:16.798Z,13.85
2022-12-04T12:11:53.103Z,12.98
2022-12-04T12:14:33.474Z,13.73
2022-12-04T12:17:13.233Z,14.75
2022-12-04T12:20:04.298Z,13.70
2022-12-04T12:22:57.980Z,13.02
2022-12-04T12:25:32.207Z,13.55
2022-12-04T12:28:13.706Z,13.38
2022-12-04T12:31:04.059Z,12.55
2022-12-04T12:33:38.007Z,13.95
2022-12-04T12:36:10.394Z,14.50
2022-12-04T12:38:45.421Z,12.93
2022-12-04T12:41:16.715Z,15.48
2022-12-04T12:43:49.137Z,16.00
2022-12-04T12:46:26.213Z,14.38
2022-12-04T12:49:02.274Z,14.88
2022-12-04T12:51:36.630Z,15.98
2022-12-04T12:54:16.446Z,17.13
2022-12-04T12:56:52.402Z,16.40
2022-12-04T12:59:25.314Z,14.55
2022-12-04T13:02:01.059Z,17.10
2022-12-04T13:04:38.881Z,17.00
2022-12-04T13:07:24.723Z,16.70
2022-12-04T13:09:59.501Z,16.85
2022-12-04T13:12:28.758Z,15.32
2022-12-04T13:14:57.043Z,16.73
2022-12-04T13:17:33.256Z,15.50
2022-12-04T13:20:09.848Z,15.63
2022-12-04T13:22:48.432Z,16.52
2022-12-04T13:25:31.487Z,16.33
2022-12-04T13:28:12.232Z,18.27
2022-12-04T13:30:47.749Z,16.65
2022-12-04T13:33:45.359Z,17.30
2022-12-04T13:36:27.010Z,18.48
2022-12-04T13:39:19.681Z,16.70
2022-12-04T13:41:48.469Z,18.17
2022-12-04T13:44:23.442Z,16.80
2022-12-04T13:46:55.500Z,16.33
2022-12-04T13:49:30.565Z,16.30
2022-12-04T13:52:00.333Z,16.58
2022-12-04T13:54:32.231Z,16.13
2022-12-04T13:57:19.598Z,15.73
2022-12-04T13:59:48.945Z,16.77
2022-12-04T14:02:27.863Z,17.95
2022-12-04T14:05:02.915Z,17.27
2022-12-04T14:07:33.865Z,16.45
2022-12-04T14:10:05.704Z,16.02
2022-12-04T14:12:37.657Z,14.43
2022-12-04T14:15:08.712Z,14.45
2022-12-04T14:17:39.515Z,15.88
2022-12-04T14:20:23.132Z,15.50
2022-12-04T14:22:51.442Z,15.15
2022-12-04T14:25:35.817Z,15.93
2022-12-04T14:28:26.016Z,16.60
2022-12-04T14:31:24.931Z,14.98
2022-12-04T14:33:57.408Z,14.75
2022-12-04T14:36:29.353Z,15.43
2022-12-04T14:39:06.186Z,13.60
2022-12-04T14:41:34.472Z,14.43
2022-12-04T14:44:03.246Z,14.43
2022-12-04T14:46:40.391Z,13.82
2022-12-04T14:49:22.122Z,13.32
2022-12-04T14:52:00.607Z,13.68
2022-12-04T14:54:34.701Z,14.25
2022-12-04T14:57:15.578Z,13.48
2022-12-04T14:59:46.878Z,12.00
2022-12-04T15:02:19.024Z,13.35
2022-12-04T15:04:48.723Z,13.75
2022-12-04T15:07:23.042Z,13.38
2022-12-04T15:10:13.093Z,12.40
2022-12-04T15:12:46.260Z,14.30
2022-12-04T15:15:19.541Z,14.52
2022-12-04T15:18:01.530Z,13.77
2022-12-04T15:20:38.638Z,13.65
2022-12-04T15:23:14.113Z,14.20
2022-12-04T15:25:46.737Z,14.43
2022-12-04T15:28:18.987Z,13.63
2022-12-04T15:30:49.440Z,15.13
2022-12-04T15:33:21.919Z,14.10
2022-12-04T15:35:55.186Z,14.93
2022-12-04T15:38:25.312Z,14.95
2022-12-04T15:40:56.094Z,13.25
2022-12-04T15:43:30.582Z,14.85
2022-12-04T15:45:59.706Z,13.40
2022-12-04T15:48:29.691Z,17.05
2022-12-04T15:51:00.600Z,18.52
2022-12-04T15:53:32.482Z,15.70
2022-12-04T15:56:04.346Z,14.13
2022-12-04T15:58:34.242Z,15.05
2022-12-04T16:01:04.798Z,15.75
2022-12-04T16:03:47.908Z,12.75
2022-12-04T16:06:19.704Z,13.48
2022-12-04T16:08:51.123Z,16.55
2022-12-04T16:11:34.303Z,14.05
2022-12-04T16:14:19.735Z,15.38
2022-12-04T16:16:49.834Z,14.48
2022-12-04T16:19:28.728Z,13.70
2022-12-04T16:21:57.391Z,14.50
2022-12-04T16:24:27.409Z,14.55
2022-12-04T16:26:57.164Z,16.50
2022-12-04T16:29:25.892Z,16.35
2022-12-04T16:31:57.166Z,15.10
2022-12-04T16:34:29.554Z,15.52
2022-12-04T16:36:57.884Z,17.42
2022-12-04T16:39:27.535Z,19.38
2022-12-04T16:41:55.846Z,18.00
2022-12-04T16:44:24.160Z,17.20
2022-12-04T16:46:52.517Z,15.90
2022-12-04T16:49:20.811Z,15.07
2022-12-04T16:51:50.778Z,15.57
2022-12-04T16:54:19.625Z,15.00
2022-12-04T16:56:49.357Z,14.52
2022-12-04T16:59:17.736Z,14.00
2022-12-04T17:01:48.661Z,14.93
2022-12-04T17:04:17.889Z,16.45
2022-12-04T17:06:46.896Z,13.98
2022-12-04T17:09:15.366Z,14.32
2022-12-04T17:11:44.074Z,16.23
2022-12-04T17:14:13.824Z,16.15
2022-12-04T17:16:45.244Z,14.05
2022-12-04T17:19:14.507Z,17.58
2022-12-04T17:21:42.938Z,16.35
2022-12-04T17:24:11.575Z,14.93
2022-12-04T17:26:39.950Z,18.20
2022-12-04T17:29:08.208Z,15.93
2022-12-04T17:31:37.747Z,15.63
2022-12-04T17:34:06.026Z,15.68
2022-12-04T17:36:34.320Z,16.15
2022-12-04T17:39:02.915Z,16.02
2022-12-04T17:41:31.476Z,14.85
2022-12-04T17:44:01.749Z,15.45
2022-12-04T17:46:30.222Z,13.68
2022-12-04T17:49:05.333Z,16.38
2022-12-04T17:51:36.032Z,16.20
2022-12-04T17:54:04.408Z,15.25
2022-12-04T17:56:32.932Z,15.10
2022-12-04T17:59:01.184Z,15.77
2022-12-04T18:01:31.018Z,15.10
2022-12-04T18:04:03.937Z,17.35
2022-12-04T18:06:33.886Z,15.63
2022-12-04T18:09:02.652Z,16.13
2022-12-04T18:11:33.147Z,16.17
2022-12-04T18:14:06.002Z,17.90
2022-12-04T18:16:40.547Z,16.55
2022-12-04T18:19:10.213Z,16.25
2022-12-04T18:21:38.403Z,16.50
2022-12-04T18:24:08.028Z,15.35
2022-12-04T18:26:38.967Z,16.40
2022-12-04T18:29:08.514Z,17.50
2022-12-04T18:31:36.964Z,20.35
2022-12-04T18:34:07.127Z,16.85
2022-12-04T18:36:38.878Z,17.15
2022-12-04T18:39:10.437Z,17.48
2022-12-04T18:41:38.827Z,16.98
2022-12-04T18:44:07.440Z,16.02
2022-12-04T18:46:35.784Z,18.20
2022-12-04T18:49:04.424Z,16.08
2022-12-04T18:51:34.765Z,16.58
2022-12-04T18:54:06.370Z,17.63
2022-12-04T18:56:35.912Z,16.92
2022-12-04T18:59:07.096Z,14.77
2022-12-04T19:01:35.560Z,15.93
2022-12-04T19:04:05.969Z,16.67
2022-12-04T19:06:36.612Z,15.90
2022-12-04T19:09:08.929Z,15.70
2022-12-04T19:11:38.302Z,17.45
2022-12-04T19:14:16.225Z,17.63
2022-12-04T19:16:49.721Z,17.25
2022-12-04T19:19:19.273Z,16.00
2022-12-04T19:21:47.528Z,18.20
2022-12-04T19:24:17.751Z,16.88
2022-12-04T19:26:47.802Z,15.30
2022-12-04T19:29:16.283Z,14.63
2022-12-04T19:31:44.643Z,15.60
2022-12-04T19:34:12.918Z,15.15
2022-12-04T19:36:42.759Z,15.82
2022-12-04T19:39:11.469Z,15.68
2022-12-04T19:41:41.560Z,15.90
2022-12-04T19:44:46.787Z,15.20
2022-12-04T19:46:59.323Z,17.30
2022-12-04T19:49:27.504Z,15.75
2022-12-04T19:51:55.691Z,16.13
2022-12-04T19:54:23.872Z,16.13
2022-12-04T19:56:53.412Z,16.10
2022-12-04T19:59:22.455Z,17.48
2022-12-04T20:01:50.917Z,14.95
2022-12-04T20:04:19.935Z,19.52
2022-12-04T20:06:48.246Z,16.15
2022-12-04T20:09:20.269Z,15.35
2022-12-04T20:11:48.695Z,14.60
2022-12-04T20:14:18.897Z,14.60
2022-12-04T20:16:47.801Z,15.98
2022-12-04T20:19:18.687Z,13.98
2022-12-04T20:21:47.659Z,14.15
2022-12-04T20:24:17.594Z,15.75
2022-12-04T20:26:47.968Z,14.60
2022-12-04T20:29:19.186Z,14.88
2022-12-04T20:31:48.153Z,13.50
2022-12-04T20:34:18.280Z,13.32
2022-12-04T20:36:48.265Z,14.95
2022-12-04T20:39:17.875Z,16.10
2022-12-04T20:41:46.539Z,13.68
2022-12-04T20:44:18.189Z,16.83
2022-12-04T20:46:46.685Z,15.50
2022-12-04T20:49:21.060Z,13.00
2022-12-04T20:51:50.680Z,14.48
2022-12-04T20:54:20.936Z,15.60
2022-12-04T20:56:49.772Z,15.45
2022-12-04T20:59:20.856Z,17.00
2022-12-04T21:01:50.593Z,14.20
2022-12-04T21:04:19.612Z,15.10
2022-12-04T21:06:48.425Z,15.32
2022-12-04T21:09:18.396Z,16.45
2022-12-04T21:11:49.078Z,12.25
2022-12-04T21:14:38.663Z,12.05
2022-12-04T21:17:09.474Z,12.25
2022-12-04T21:19:38.750Z,12.70
2022-12-04T21:22:07.093Z,12.13
2022-12-04T21:24:38.766Z,12.57
2022-12-04T21:27:09.083Z,10.95
2022-12-04T21:29:39.751Z,12.32
2022-12-04T21:32:08.764Z,12.20
2022-12-04T21:34:37.042Z,11.77
2022-12-04T21:37:05.447Z,13.43
2022-12-04T21:39:33.891Z,10.85
2022-12-04T21:42:19.608Z,11.80
2022-12-04T21:44:48.998Z,11.07
2022-12-04T21:47:17.244Z,11.55
2022-12-04T21:49:46.414Z,13.32
2022-12-04T21:52:14.878Z,13.20
2022-12-04T21:54:43.096Z,12.20
2022-12-04T21:57:11.375Z,13.30
2022-12-04T21:59:39.573Z,12.50
2022-12-04T22:02:09.235Z,14.93
2022-12-04T22:04:38.673Z,12.15
2022-12-04T22:07:07.064Z,11.45
2022-12-04T22:09:35.289Z,11.32
2022-12-04T22:12:14.681Z,12.15
2022-12-04T22:14:51.672Z,11.02
2022-12-04T22:17:21.152Z,12.18
2022-12-04T22:19:49.739Z,11.10
2022-12-04T22:22:18.009Z,10.70
2022-12-04T22:24:46.217Z,12.52
2022-12-04T22:27:15.440Z,11.60
2022-12-04T22:30:02.341Z,12.65
2022-12-04T22:32:32.148Z,11.38
2022-12-04T22:35:00.295Z,11.55
2022-12-04T22:37:28.897Z,12.38
2022-12-04T22:39:57.180Z,10.93
2022-12-04T22:42:25.669Z,11.20
2022-12-04T22:44:53.854Z,12.05
2022-12-04T22:47:22.206Z,13.45
2022-12-04T22:49:51.833Z,11.23
2022-12-04T22:52:20.345Z,10.82
2022-12-04T22:54:50.729Z,10.57
2022-12-04T22:57:19.127Z,11.20
2022-12-04T22:59:47.559Z,11.02
2022-12-04T23:02:15.994Z,12.48
2022-12-04T23:04:45.208Z,13.60
2022-12-04T23:07:14.816Z,12.90
2022-12-04T23:09:43.341Z,12.40
2022-12-04T23:12:11.523Z,11.70
2022-12-04T23:14:39.652Z,11.90
2022-12-04T23:17:07.953Z,12.40
2022-12-04T23:19:36.286Z,11.38
2022-12-04T23:22:04.783Z,13.48
2022-12-04T23:24:38.090Z,12.50
2022-12-04T23:27:06.570Z,11.38
2022-12-04T23:29:52.884Z,11.35
2022-12-04T23:32:21.621Z,12.25
2022-12-04T23:34:49.907Z,12.43
2022-12-04T23:37:18.144Z,12.10
2022-12-04T23:39:47.808Z,11.23
2022-12-04T23:42:16.061Z,13.43
2022-12-04T23:44:44.192Z,10.93
2022-12-04T23:47:12.525Z,11.02
2022-12-04T23:49:40.707Z,9.95
2022-12-04T23:52:08.960Z,10.68
2022-12-04T23:54:37.750Z,11.13
2022-12-04T23:57:07.564Z,11.40
2022-12-04T23:59:35.712Z,11.18
